Pope Air Force Base
KPOB : now visible

Airfield :











YOU CAN JOIN US ON...

 
LOGIN :

Register | Disclaimer

   EN    FR    IT 

 









Legend :    VFR   Marginal VFR   IFR   Intensive IFR   Very Intensive IFR
Visi :
Ceiling :
>= 8 km
>= 3000ft
5 to 8 km
1000 to 3000 ft
1500m to 5 km
500 to 1000 ft
800 to 1500m
200 to 500 ft
< 800m
< 200 ft
Symbols :   Thunderstorms  Fog  Heavy snow  Heavy precipitations  Wind > 20 kt






- Airport Elevation : 217 ft


KPOB - Pope Air Force Base

CURRENT METAR :
  • 110556Z AUTO 03005KT 10SM -RA OVC004 10/09 A3014 RMK AO2 OVC V BKN SLP209 P0005 60008 T00990091 10179 20099 50013 $

EXPIRED METARs :
  • 110521Z AUTO 36004KT 9SM -RA OVC004 10/09 A3015 RMK AO2 SLP212 $
  • 110456Z AUTO 01007KT 10SM -RA OVC005 10/09 A3014 RMK AO2 SLP209 P0002 T01000089 402560100 $
  • 110411Z AUTO 02007KT 10SM RA BKN005 OVC010 11/09 A3015 RMK AO2 SLP212 $

TAF AMD TAF KPOB
Valid from the 11 at 04:00 until the 12 at 08:00 UTC


110400Z 1104/1208 33012KT 9000 -SHRA SCT005 OVC015 540203 QNH3005INS
TEMPO 1104/1108 BKN005
BECMG 1108/1109 34012KT 9000 -SHRA BKN005 OVC010 540403 QNH3015INS
BECMG 1111/1112 34010G15KT 8000 -SHRA BKN010 BKN030 540602 QNH3020INS
BECMG 1114/1115 34012G18KT 9999 NSW SCT030 QNH3025INS
BECMG 1118/1119 35010G15KT 9999 SKC QNH3030INS TX15/1104Z TN02/1202Z



MET'MAP, your aeronautical weather chart ! - Copyright ORBIFLY December 2007 - Disclaimer

ORBIFLY MET'MAP TEAM :

Programming & Development : Alexandra Zaïnal
Concept & original design : Baudouin d'Aumeries
Assistance for programming : Marc-Olivier Méhu
Technical & hardware support : Manuel Goepfert

Contact : metmap@orbifly.com




SOURCES & CREDITS :

   NOAA       Earth
Advisory